sensor_id;sensor_type;location;lat;lon;timestamp;temperature;humidity
46231;DHT22;31949;51.404;-0.038;2023-04-06T00:01:17;10.00;99.90
46231;DHT22;31949;51.404;-0.038;2023-04-06T00:03:44;10.00;99.90
46231;DHT22;31949;51.404;-0.038;2023-04-06T00:06:11;10.10;99.90
46231;DHT22;31949;51.404;-0.038;2023-04-06T00:08:39;10.10;99.90
46231;DHT22;31949;51.404;-0.038;2023-04-06T00:11:06;10.10;99.90
46231;DHT22;31949;51.404;-0.038;2023-04-06T00:13:33;10.10;99.90
46231;DHT22;31949;51.404;-0.038;2023-04-06T00:16:00;10.10;99.90
46231;DHT22;31949;51.404;-0.038;2023-04-06T00:18:28;10.10;99.90
46231;DHT22;31949;51.404;-0.038;2023-04-06T00:20:58;10.10;99.90
46231;DHT22;31949;51.404;-0.038;2023-04-06T00:23:25;10.10;99.90
46231;DHT22;31949;51.404;-0.038;2023-04-06T00:25:52;10.10;99.90
46231;DHT22;31949;51.404;-0.038;2023-04-06T00:28:19;10.00;99.90
46231;DHT22;31949;51.404;-0.038;2023-04-06T00:30:52;10.00;99.90
46231;DHT22;31949;51.404;-0.038;2023-04-06T00:33:22;10.10;99.90
46231;DHT22;31949;51.404;-0.038;2023-04-06T00:35:49;10.00;99.90
46231;DHT22;31949;51.404;-0.038;2023-04-06T00:38:17;9.90;99.90
46231;DHT22;31949;51.404;-0.038;2023-04-06T00:40:45;10.10;99.90
46231;DHT22;31949;51.404;-0.038;2023-04-06T00:43:13;10.10;99.90
46231;DHT22;31949;51.404;-0.038;2023-04-06T00:45:41;10.10;99.90
46231;DHT22;31949;51.404;-0.038;2023-04-06T00:48:13;10.10;99.90
46231;DHT22;31949;51.404;-0.038;2023-04-06T00:50:40;10.00;99.90
46231;DHT22;31949;51.404;-0.038;2023-04-06T00:53:08;10.00;99.90
46231;DHT22;31949;51.404;-0.038;2023-04-06T00:55:35;10.00;99.90
46231;DHT22;31949;51.404;-0.038;2023-04-06T00:58:03;10.00;99.90
46231;DHT22;31949;51.404;-0.038;2023-04-06T01:00:37;10.00;99.90
46231;DHT22;31949;51.404;-0.038;2023-04-06T01:03:05;10.00;99.90
46231;DHT22;31949;51.404;-0.038;2023-04-06T01:05:39;10.00;99.90
46231;DHT22;31949;51.404;-0.038;2023-04-06T01:08:15;10.00;99.90
46231;DHT22;31949;51.404;-0.038;2023-04-06T01:10:43;10.00;99.90
46231;DHT22;31949;51.404;-0.038;2023-04-06T01:13:21;10.00;99.90
46231;DHT22;31949;51.404;-0.038;2023-04-06T01:16:00;9.90;99.90
46231;DHT22;31949;51.404;-0.038;2023-04-06T01:18:41;10.10;99.90
46231;DHT22;31949;51.404;-0.038;2023-04-06T01:21:16;10.00;99.90
46231;DHT22;31949;51.404;-0.038;2023-04-06T01:23:58;10.00;99.90
46231;DHT22;31949;51.404;-0.038;2023-04-06T01:26:33;9.90;99.90
46231;DHT22;31949;51.404;-0.038;2023-04-06T01:29:05;9.90;99.90
46231;DHT22;31949;51.404;-0.038;2023-04-06T01:31:33;9.90;99.90
46231;DHT22;31949;51.404;-0.038;2023-04-06T01:34:00;9.90;99.90
46231;DHT22;31949;51.404;-0.038;2023-04-06T01:36:27;9.90;99.90
46231;DHT22;31949;51.404;-0.038;2023-04-06T01:39:03;9.90;99.90
46231;DHT22;31949;51.404;-0.038;2023-04-06T01:41:34;9.90;99.90
46231;DHT22;31949;51.404;-0.038;2023-04-06T01:44:02;9.90;99.90
46231;DHT22;31949;51.404;-0.038;2023-04-06T01:46:30;9.90;99.90
46231;DHT22;31949;51.404;-0.038;2023-04-06T01:48:59;9.90;99.90
46231;DHT22;31949;51.404;-0.038;2023-04-06T01:51:34;9.90;99.90
46231;DHT22;31949;51.404;-0.038;2023-04-06T01:54:04;9.90;99.90
46231;DHT22;31949;51.404;-0.038;2023-04-06T01:56:52;9.90;99.90
46231;DHT22;31949;51.404;-0.038;2023-04-06T01:59:27;10.00;99.90
46231;DHT22;31949;51.404;-0.038;2023-04-06T02:01:55;9.90;99.90
46231;DHT22;31949;51.404;-0.038;2023-04-06T02:04:24;9.90;99.90
46231;DHT22;31949;51.404;-0.038;2023-04-06T02:06:59;9.90;99.90
46231;DHT22;31949;51.404;-0.038;2023-04-06T02:09:28;10.00;99.90
46231;DHT22;31949;51.404;-0.038;2023-04-06T02:11:56;9.90;99.90
46231;DHT22;31949;51.404;-0.038;2023-04-06T02:14:25;10.00;99.90
46231;DHT22;31949;51.404;-0.038;2023-04-06T02:16:55;9.90;99.90
46231;DHT22;31949;51.404;-0.038;2023-04-06T02:19:23;9.90;99.90
46231;DHT22;31949;51.404;-0.038;2023-04-06T02:21:50;9.90;99.90
46231;DHT22;31949;51.404;-0.038;2023-04-06T02:24:18;10.00;99.90
46231;DHT22;31949;51.404;-0.038;2023-04-06T02:26:45;9.90;99.90
46231;DHT22;31949;51.404;-0.038;2023-04-06T02:29:12;10.00;99.90
46231;DHT22;31949;51.404;-0.038;2023-04-06T02:31:39;9.90;99.90
46231;DHT22;31949;51.404;-0.038;2023-04-06T02:34:07;9.90;99.90
46231;DHT22;31949;51.404;-0.038;2023-04-06T02:36:41;9.90;99.90
46231;DHT22;31949;51.404;-0.038;2023-04-06T02:39:08;9.90;99.90
46231;DHT22;31949;51.404;-0.038;2023-04-06T02:41:36;10.00;99.90
46231;DHT22;31949;51.404;-0.038;2023-04-06T02:44:07;10.00;99.90
46231;DHT22;31949;51.404;-0.038;2023-04-06T02:46:42;10.00;99.90
46231;DHT22;31949;51.404;-0.038;2023-04-06T02:49:09;9.90;99.90
46231;DHT22;31949;51.404;-0.038;2023-04-06T02:51:36;9.90;99.90
46231;DHT22;31949;51.404;-0.038;2023-04-06T02:54:17;9.90;99.90
46231;DHT22;31949;51.404;-0.038;2023-04-06T02:56:44;10.00;99.90
46231;DHT22;31949;51.404;-0.038;2023-04-06T02:59:12;9.90;99.90
46231;DHT22;31949;51.404;-0.038;2023-04-06T03:01:45;9.90;99.90
46231;DHT22;31949;51.404;-0.038;2023-04-06T03:04:13;9.90;99.90
46231;DHT22;31949;51.404;-0.038;2023-04-06T03:06:40;9.90;99.90
46231;DHT22;31949;51.404;-0.038;2023-04-06T03:09:18;9.90;99.90
46231;DHT22;31949;51.404;-0.038;2023-04-06T03:11:46;9.90;99.90
46231;DHT22;31949;51.404;-0.038;2023-04-06T03:14:14;9.90;99.90
46231;DHT22;31949;51.404;-0.038;2023-04-06T03:16:41;9.90;99.90
46231;DHT22;31949;51.404;-0.038;2023-04-06T03:19:09;10.00;99.90
46231;DHT22;31949;51.404;-0.038;2023-04-06T03:21:36;9.90;99.90
46231;DHT22;31949;51.404;-0.038;2023-04-06T03:24:05;9.90;99.90
46231;DHT22;31949;51.404;-0.038;2023-04-06T03:26:32;9.90;99.90
46231;DHT22;31949;51.404;-0.038;2023-04-06T03:29:04;9.90;99.90
46231;DHT22;31949;51.404;-0.038;2023-04-06T03:31:31;10.00;99.90
46231;DHT22;31949;51.404;-0.038;2023-04-06T03:34:05;10.00;99.90
46231;DHT22;31949;51.404;-0.038;2023-04-06T03:36:35;10.00;99.90
46231;DHT22;31949;51.404;-0.038;2023-04-06T03:39:05;10.00;99.90
46231;DHT22;31949;51.404;-0.038;2023-04-06T03:41:35;9.90;99.90
46231;DHT22;31949;51.404;-0.038;2023-04-06T03:44:10;9.90;99.90
46231;DHT22;31949;51.404;-0.038;2023-04-06T03:46:38;9.90;99.90
46231;DHT22;31949;51.404;-0.038;2023-04-06T03:49:05;9.90;99.90
46231;DHT22;31949;51.404;-0.038;2023-04-06T03:51:33;9.90;99.90
46231;DHT22;31949;51.404;-0.038;2023-04-06T03:54:01;10.00;99.90
46231;DHT22;31949;51.404;-0.038;2023-04-06T03:56:28;10.00;99.90
46231;DHT22;31949;51.404;-0.038;2023-04-06T03:58:55;10.00;99.90
46231;DHT22;31949;51.404;-0.038;2023-04-06T04:01:23;10.00;99.90
46231;DHT22;31949;51.404;-0.038;2023-04-06T04:03:50;10.00;99.90
46231;DHT22;31949;51.404;-0.038;2023-04-06T04:06:18;10.10;99.90
46231;DHT22;31949;51.404;-0.038;2023-04-06T04:08:45;10.00;99.90
46231;DHT22;31949;51.404;-0.038;2023-04-06T04:11:12;10.10;99.90
46231;DHT22;31949;51.404;-0.038;2023-04-06T04:13:40;10.10;99.90
46231;DHT22;31949;51.404;-0.038;2023-04-06T04:16:08;10.10;99.90
46231;DHT22;31949;51.404;-0.038;2023-04-06T04:18:35;10.10;99.90
46231;DHT22;31949;51.404;-0.038;2023-04-06T04:21:05;10.10;99.90
46231;DHT22;31949;51.404;-0.038;2023-04-06T04:23:32;10.10;99.90
46231;DHT22;31949;51.404;-0.038;2023-04-06T04:26:02;10.10;99.90
46231;DHT22;31949;51.404;-0.038;2023-04-06T04:28:29;10.10;99.90
46231;DHT22;31949;51.404;-0.038;2023-04-06T04:30:57;10.10;99.90
46231;DHT22;31949;51.404;-0.038;2023-04-06T04:33:24;10.10;99.90
46231;DHT22;31949;51.404;-0.038;2023-04-06T04:35:54;10.10;99.90
46231;DHT22;31949;51.404;-0.038;2023-04-06T04:38:24;10.20;99.90
46231;DHT22;31949;51.404;-0.038;2023-04-06T04:40:54;10.20;99.90
46231;DHT22;31949;51.404;-0.038;2023-04-06T04:43:22;10.20;99.90
46231;DHT22;31949;51.404;-0.038;2023-04-06T04:45:49;10.20;99.90
46231;DHT22;31949;51.404;-0.038;2023-04-06T04:48:37;10.20;99.90
46231;DHT22;31949;51.404;-0.038;2023-04-06T04:51:06;10.10;99.90
46231;DHT22;31949;51.404;-0.038;2023-04-06T04:53:53;10.10;99.90
46231;DHT22;31949;51.404;-0.038;2023-04-06T04:56:25;10.10;99.90
46231;DHT22;31949;51.404;-0.038;2023-04-06T04:58:58;10.20;99.90
46231;DHT22;31949;51.404;-0.038;2023-04-06T05:01:28;10.20;99.90
46231;DHT22;31949;51.404;-0.038;2023-04-06T05:04:00;10.30;99.90
46231;DHT22;31949;51.404;-0.038;2023-04-06T05:06:27;10.30;99.90
46231;DHT22;31949;51.404;-0.038;2023-04-06T05:08:55;10.30;99.90
46231;DHT22;31949;51.404;-0.038;2023-04-06T05:11:22;10.30;99.90
46231;DHT22;31949;51.404;-0.038;2023-04-06T05:13:56;10.30;99.90
46231;DHT22;31949;51.404;-0.038;2023-04-06T05:16:24;10.20;99.90
46231;DHT22;31949;51.404;-0.038;2023-04-06T05:18:52;10.20;99.90
46231;DHT22;31949;51.404;-0.038;2023-04-06T05:21:20;10.20;99.90
46231;DHT22;31949;51.404;-0.038;2023-04-06T05:24:01;10.20;99.90
46231;DHT22;31949;51.404;-0.038;2023-04-06T05:26:31;10.30;99.90
46231;DHT22;31949;51.404;-0.038;2023-04-06T05:29:04;10.30;99.90
46231;DHT22;31949;51.404;-0.038;2023-04-06T05:31:35;10.40;99.90
46231;DHT22;31949;51.404;-0.038;2023-04-06T05:34:02;10.30;99.90
46231;DHT22;31949;51.404;-0.038;2023-04-06T05:36:33;10.30;99.90
46231;DHT22;31949;51.404;-0.038;2023-04-06T05:39:06;10.30;99.90
46231;DHT22;31949;51.404;-0.038;2023-04-06T05:41:40;10.40;99.90
46231;DHT22;31949;51.404;-0.038;2023-04-06T05:44:09;10.40;99.90
46231;DHT22;31949;51.404;-0.038;2023-04-06T05:46:39;10.40;99.90
46231;DHT22;31949;51.404;-0.038;2023-04-06T05:49:11;10.40;99.90
46231;DHT22;31949;51.404;-0.038;2023-04-06T05:51:39;10.30;99.90
46231;DHT22;31949;51.404;-0.038;2023-04-06T05:54:06;10.30;99.90
46231;DHT22;31949;51.404;-0.038;2023-04-06T05:56:34;10.50;99.90
46231;DHT22;31949;51.404;-0.038;2023-04-06T05:59:02;10.50;99.90
46231;DHT22;31949;51.404;-0.038;2023-04-06T06:01:30;10.40;99.90
46231;DHT22;31949;51.404;-0.038;2023-04-06T06:04:00;10.40;99.90
46231;DHT22;31949;51.404;-0.038;2023-04-06T06:06:30;10.40;99.90
46231;DHT22;31949;51.404;-0.038;2023-04-06T06:09:27;10.40;99.90
46231;DHT22;31949;51.404;-0.038;2023-04-06T06:12:12;10.50;99.90
46231;DHT22;31949;51.404;-0.038;2023-04-06T06:14:41;10.40;99.90
46231;DHT22;31949;51.404;-0.038;2023-04-06T06:17:09;10.40;99.90
46231;DHT22;31949;51.404;-0.038;2023-04-06T06:19:36;10.40;99.90
46231;DHT22;31949;51.404;-0.038;2023-04-06T06:22:07;10.40;99.90
46231;DHT22;31949;51.404;-0.038;2023-04-06T06:24:38;10.40;99.90
46231;DHT22;31949;51.404;-0.038;2023-04-06T06:27:06;10.40;99.90
46231;DHT22;31949;51.404;-0.038;2023-04-06T06:29:36;10.40;99.90
46231;DHT22;31949;51.404;-0.038;2023-04-06T06:32:04;10.40;99.90
46231;DHT22;31949;51.404;-0.038;2023-04-06T06:34:32;10.50;99.90
46231;DHT22;31949;51.404;-0.038;2023-04-06T06:37:02;10.50;99.90
46231;DHT22;31949;51.404;-0.038;2023-04-06T06:39:30;10.60;99.90
46231;DHT22;31949;51.404;-0.038;2023-04-06T06:41:57;10.60;99.90
46231;DHT22;31949;51.404;-0.038;2023-04-06T06:44:49;10.50;99.90
46231;DHT22;31949;51.404;-0.038;2023-04-06T06:47:17;10.60;99.90
46231;DHT22;31949;51.404;-0.038;2023-04-06T06:49:44;10.60;99.90
46231;DHT22;31949;51.404;-0.038;2023-04-06T06:52:11;10.70;99.90
46231;DHT22;31949;51.404;-0.038;2023-04-06T06:54:38;10.70;99.90
46231;DHT22;31949;51.404;-0.038;2023-04-06T06:57:06;10.80;99.90
46231;DHT22;31949;51.404;-0.038;2023-04-06T06:59:33;10.80;99.90
46231;DHT22;31949;51.404;-0.038;2023-04-06T07:02:01;10.90;99.90
46231;DHT22;31949;51.404;-0.038;2023-04-06T07:04:28;10.90;99.90
46231;DHT22;31949;51.404;-0.038;2023-04-06T07:06:55;11.00;99.90
46231;DHT22;31949;51.404;-0.038;2023-04-06T07:09:23;11.00;99.90
46231;DHT22;31949;51.404;-0.038;2023-04-06T07:11:50;11.00;99.90
46231;DHT22;31949;51.404;-0.038;2023-04-06T07:14:17;11.10;99.90
46231;DHT22;31949;51.404;-0.038;2023-04-06T07:16:45;11.10;99.90
46231;DHT22;31949;51.404;-0.038;2023-04-06T07:19:14;11.20;99.90
46231;DHT22;31949;51.404;-0.038;2023-04-06T07:21:42;11.40;99.90
46231;DHT22;31949;51.404;-0.038;2023-04-06T07:24:10;11.50;99.90
46231;DHT22;31949;51.404;-0.038;2023-04-06T07:26:37;11.80;99.90
46231;DHT22;31949;51.404;-0.038;2023-04-06T07:29:04;11.80;99.90
46231;DHT22;31949;51.404;-0.038;2023-04-06T07:31:32;11.90;99.90
46231;DHT22;31949;51.404;-0.038;2023-04-06T07:34:00;11.90;99.90
46231;DHT22;31949;51.404;-0.038;2023-04-06T07:36:27;11.90;99.90
46231;DHT22;31949;51.404;-0.038;2023-04-06T07:38:55;11.90;99.90
46231;DHT22;31949;51.404;-0.038;2023-04-06T07:41:23;11.80;99.90
46231;DHT22;31949;51.404;-0.038;2023-04-06T07:43:51;11.70;99.90
46231;DHT22;31949;51.404;-0.038;2023-04-06T07:46:18;11.70;99.90
46231;DHT22;31949;51.404;-0.038;2023-04-06T07:48:45;11.70;99.90
46231;DHT22;31949;51.404;-0.038;2023-04-06T07:51:13;11.70;99.90
46231;DHT22;31949;51.404;-0.038;2023-04-06T07:53:44;11.60;99.90
46231;DHT22;31949;51.404;-0.038;2023-04-06T07:56:11;11.60;99.90
46231;DHT22;31949;51.404;-0.038;2023-04-06T07:58:42;11.60;99.90
46231;DHT22;31949;51.404;-0.038;2023-04-06T08:01:10;11.60;99.90
46231;DHT22;31949;51.404;-0.038;2023-04-06T08:03:37;11.50;99.90
46231;DHT22;31949;51.404;-0.038;2023-04-06T08:06:05;11.50;99.90
46231;DHT22;31949;51.404;-0.038;2023-04-06T08:08:32;11.50;99.90
46231;DHT22;31949;51.404;-0.038;2023-04-06T08:11:00;11.40;99.90
46231;DHT22;31949;51.404;-0.038;2023-04-06T08:13:29;11.50;99.90
46231;DHT22;31949;51.404;-0.038;2023-04-06T08:15:58;11.50;99.90
46231;DHT22;31949;51.404;-0.038;2023-04-06T08:18:25;11.50;99.90
46231;DHT22;31949;51.404;-0.038;2023-04-06T08:20:54;11.40;99.90
46231;DHT22;31949;51.404;-0.038;2023-04-06T08:23:21;11.40;99.90
46231;DHT22;31949;51.404;-0.038;2023-04-06T08:25:48;11.40;99.90
46231;DHT22;31949;51.404;-0.038;2023-04-06T08:28:16;11.40;99.90
46231;DHT22;31949;51.404;-0.038;2023-04-06T08:30:43;11.40;99.90
46231;DHT22;31949;51.404;-0.038;2023-04-06T08:33:10;11.40;99.90
46231;DHT22;31949;51.404;-0.038;2023-04-06T08:35:38;11.40;99.90
46231;DHT22;31949;51.404;-0.038;2023-04-06T08:38:06;11.40;99.90
46231;DHT22;31949;51.404;-0.038;2023-04-06T08:40:38;11.50;99.90
46231;DHT22;31949;51.404;-0.038;2023-04-06T08:43:10;11.50;99.90
46231;DHT22;31949;51.404;-0.038;2023-04-06T08:45:41;11.50;99.90
46231;DHT22;31949;51.404;-0.038;2023-04-06T08:48:08;11.60;99.90
46231;DHT22;31949;51.404;-0.038;2023-04-06T08:50:38;11.60;99.90
46231;DHT22;31949;51.404;-0.038;2023-04-06T08:53:06;11.60;99.90
46231;DHT22;31949;51.404;-0.038;2023-04-06T08:55:35;11.80;99.90
46231;DHT22;31949;51.404;-0.038;2023-04-06T08:58:03;11.80;99.90
46231;DHT22;31949;51.404;-0.038;2023-04-06T09:00:37;11.90;99.90
46231;DHT22;31949;51.404;-0.038;2023-04-06T09:03:06;12.00;99.90
46231;DHT22;31949;51.404;-0.038;2023-04-06T09:05:38;12.10;99.90
46231;DHT22;31949;51.404;-0.038;2023-04-06T09:08:06;12.10;99.90
46231;DHT22;31949;51.404;-0.038;2023-04-06T09:10:34;12.20;99.90
46231;DHT22;31949;51.404;-0.038;2023-04-06T09:13:05;12.30;99.90
46231;DHT22;31949;51.404;-0.038;2023-04-06T09:15:34;12.30;99.90
46231;DHT22;31949;51.404;-0.038;2023-04-06T09:18:02;12.30;99.90
46231;DHT22;31949;51.404;-0.038;2023-04-06T09:20:29;12.30;99.90
46231;DHT22;31949;51.404;-0.038;2023-04-06T09:22:56;12.40;99.90
46231;DHT22;31949;51.404;-0.038;2023-04-06T09:25:24;12.40;99.90
46231;DHT22;31949;51.404;-0.038;2023-04-06T09:28:04;12.40;99.90
46231;DHT22;31949;51.404;-0.038;2023-04-06T09:30:32;12.40;99.90
46231;DHT22;31949;51.404;-0.038;2023-04-06T09:33:03;12.30;99.90
46231;DHT22;31949;51.404;-0.038;2023-04-06T09:35:31;12.30;99.90
46231;DHT22;31949;51.404;-0.038;2023-04-06T09:38:10;12.30;99.90
46231;DHT22;31949;51.404;-0.038;2023-04-06T09:40:49;12.20;99.90
46231;DHT22;31949;51.404;-0.038;2023-04-06T09:43:27;12.20;99.90
46231;DHT22;31949;51.404;-0.038;2023-04-06T09:46:00;12.20;99.90
46231;DHT22;31949;51.404;-0.038;2023-04-06T09:48:31;12.20;99.90
46231;DHT22;31949;51.404;-0.038;2023-04-06T09:51:03;12.20;99.90
46231;DHT22;31949;51.404;-0.038;2023-04-06T09:53:36;12.20;99.90
46231;DHT22;31949;51.404;-0.038;2023-04-06T09:56:08;12.20;99.90
46231;DHT22;31949;51.404;-0.038;2023-04-06T09:58:42;12.20;99.90
46231;DHT22;31949;51.404;-0.038;2023-04-06T10:01:12;12.20;99.90
46231;DHT22;31949;51.404;-0.038;2023-04-06T10:03:55;12.30;99.90
46231;DHT22;31949;51.404;-0.038;2023-04-06T10:06:27;12.40;99.90
46231;DHT22;31949;51.404;-0.038;2023-04-06T10:08:59;12.50;99.90
46231;DHT22;31949;51.404;-0.038;2023-04-06T10:11:29;12.60;99.90
46231;DHT22;31949;51.404;-0.038;2023-04-06T10:13:56;12.70;99.90
46231;DHT22;31949;51.404;-0.038;2023-04-06T10:16:24;12.60;99.90
46231;DHT22;31949;51.404;-0.038;2023-04-06T10:18:58;12.70;99.90
46231;DHT22;31949;51.404;-0.038;2023-04-06T10:21:29;12.80;99.90
46231;DHT22;31949;51.404;-0.038;2023-04-06T10:23:59;12.70;99.90
46231;DHT22;31949;51.404;-0.038;2023-04-06T10:26:28;12.90;99.90
46231;DHT22;31949;51.404;-0.038;2023-04-06T10:29:01;13.00;99.90
46231;DHT22;31949;51.404;-0.038;2023-04-06T10:31:28;13.10;99.90
46231;DHT22;31949;51.404;-0.038;2023-04-06T10:34:01;13.10;99.90
46231;DHT22;31949;51.404;-0.038;2023-04-06T10:36:33;13.20;99.90
46231;DHT22;31949;51.404;-0.038;2023-04-06T10:39:04;13.20;99.90
46231;DHT22;31949;51.404;-0.038;2023-04-06T10:41:33;13.30;99.90
46231;DHT22;31949;51.404;-0.038;2023-04-06T10:44:02;13.30;99.90
46231;DHT22;31949;51.404;-0.038;2023-04-06T10:46:31;13.30;99.90
46231;DHT22;31949;51.404;-0.038;2023-04-06T10:49:10;13.40;99.90
46231;DHT22;31949;51.404;-0.038;2023-04-06T10:51:40;13.40;99.90
46231;DHT22;31949;51.404;-0.038;2023-04-06T10:54:09;13.40;99.90
46231;DHT22;31949;51.404;-0.038;2023-04-06T10:56:38;13.50;99.90
46231;DHT22;31949;51.404;-0.038;2023-04-06T10:59:06;13.40;99.90
46231;DHT22;31949;51.404;-0.038;2023-04-06T11:01:34;13.40;99.90
46231;DHT22;31949;51.404;-0.038;2023-04-06T11:04:02;13.50;99.90
46231;DHT22;31949;51.404;-0.038;2023-04-06T11:06:30;13.60;99.90
46231;DHT22;31949;51.404;-0.038;2023-04-06T11:09:02;13.70;99.90
46231;DHT22;31949;51.404;-0.038;2023-04-06T11:11:30;13.70;99.90
46231;DHT22;31949;51.404;-0.038;2023-04-06T11:13:58;13.80;99.90
46231;DHT22;31949;51.404;-0.038;2023-04-06T11:16:30;13.90;99.90
46231;DHT22;31949;51.404;-0.038;2023-04-06T11:19:00;14.00;99.90
46231;DHT22;31949;51.404;-0.038;2023-04-06T11:24:13;14.20;99.90
46231;DHT22;31949;51.404;-0.038;2023-04-06T11:26:51;14.20;99.90
46231;DHT22;31949;51.404;-0.038;2023-04-06T11:29:20;14.20;99.90
46231;DHT22;31949;51.404;-0.038;2023-04-06T11:31:50;14.20;99.90
46231;DHT22;31949;51.404;-0.038;2023-04-06T11:34:23;14.20;99.90
46231;DHT22;31949;51.404;-0.038;2023-04-06T11:37:01;14.20;99.90
46231;DHT22;31949;51.404;-0.038;2023-04-06T11:39:32;14.30;99.90
46231;DHT22;31949;51.404;-0.038;2023-04-06T11:42:04;14.40;99.90
46231;DHT22;31949;51.404;-0.038;2023-04-06T11:44:35;14.40;99.90
46231;DHT22;31949;51.404;-0.038;2023-04-06T11:47:03;14.30;99.90
46231;DHT22;31949;51.404;-0.038;2023-04-06T11:49:32;14.30;99.90
46231;DHT22;31949;51.404;-0.038;2023-04-06T11:52:01;14.20;99.90
46231;DHT22;31949;51.404;-0.038;2023-04-06T11:54:36;14.00;99.90
46231;DHT22;31949;51.404;-0.038;2023-04-06T11:57:06;14.10;99.90
46231;DHT22;31949;51.404;-0.038;2023-04-06T11:59:33;14.10;99.90
46231;DHT22;31949;51.404;-0.038;2023-04-06T12:02:02;14.00;99.90
46231;DHT22;31949;51.404;-0.038;2023-04-06T12:04:33;14.00;99.90
46231;DHT22;31949;51.404;-0.038;2023-04-06T12:07:00;14.10;99.90
46231;DHT22;31949;51.404;-0.038;2023-04-06T12:09:28;14.20;99.90
46231;DHT22;31949;51.404;-0.038;2023-04-06T12:11:55;14.30;99.90
46231;DHT22;31949;51.404;-0.038;2023-04-06T12:14:23;14.30;99.90
46231;DHT22;31949;51.404;-0.038;2023-04-06T12:16:50;14.40;99.90
46231;DHT22;31949;51.404;-0.038;2023-04-06T12:19:17;14.50;99.90
46231;DHT22;31949;51.404;-0.038;2023-04-06T12:21:45;14.70;99.90
46231;DHT22;31949;51.404;-0.038;2023-04-06T12:24:12;14.90;99.90
46231;DHT22;31949;51.404;-0.038;2023-04-06T12:26:40;15.00;99.90
46231;DHT22;31949;51.404;-0.038;2023-04-06T12:29:08;15.00;99.90
46231;DHT22;31949;51.404;-0.038;2023-04-06T12:31:36;14.90;99.90
46231;DHT22;31949;51.404;-0.038;2023-04-06T12:34:06;14.90;99.90
46231;DHT22;31949;51.404;-0.038;2023-04-06T12:36:34;15.00;99.90
46231;DHT22;31949;51.404;-0.038;2023-04-06T12:39:01;15.00;99.90
46231;DHT22;31949;51.404;-0.038;2023-04-06T12:41:29;15.10;99.90
46231;DHT22;31949;51.404;-0.038;2023-04-06T12:43:58;15.10;99.90
46231;DHT22;31949;51.404;-0.038;2023-04-06T12:46:26;15.10;99.90
46231;DHT22;31949;51.404;-0.038;2023-04-06T12:48:53;15.20;99.90
46231;DHT22;31949;51.404;-0.038;2023-04-06T12:51:22;15.30;99.90
46231;DHT22;31949;51.404;-0.038;2023-04-06T12:53:50;15.50;99.90
46231;DHT22;31949;51.404;-0.038;2023-04-06T12:56:22;15.60;99.90
46231;DHT22;31949;51.404;-0.038;2023-04-06T12:58:52;15.60;99.90
46231;DHT22;31949;51.404;-0.038;2023-04-06T13:01:20;15.60;99.90
46231;DHT22;31949;51.404;-0.038;2023-04-06T13:03:48;15.50;99.90
46231;DHT22;31949;51.404;-0.038;2023-04-06T13:06:15;15.40;99.90
46231;DHT22;31949;51.404;-0.038;2023-04-06T13:08:43;15.40;99.90
46231;DHT22;31949;51.404;-0.038;2023-04-06T13:11:10;15.20;99.90
46231;DHT22;31949;51.404;-0.038;2023-04-06T13:13:37;15.20;99.90
46231;DHT22;31949;51.404;-0.038;2023-04-06T13:16:07;15.20;99.90
46231;DHT22;31949;51.404;-0.038;2023-04-06T13:18:35;15.20;99.90
46231;DHT22;31949;51.404;-0.038;2023-04-06T13:21:06;15.20;99.90
46231;DHT22;31949;51.404;-0.038;2023-04-06T13:23:33;15.10;99.90
46231;DHT22;31949;51.404;-0.038;2023-04-06T13:26:03;15.10;99.90
46231;DHT22;31949;51.404;-0.038;2023-04-06T13:28:36;15.10;99.90
46231;DHT22;31949;51.404;-0.038;2023-04-06T13:31:07;15.00;99.90
46231;DHT22;31949;51.404;-0.038;2023-04-06T13:33:35;15.00;99.90
46231;DHT22;31949;51.404;-0.038;2023-04-06T13:36:03;15.00;99.90
46231;DHT22;31949;51.404;-0.038;2023-04-06T13:38:30;15.00;99.90
46231;DHT22;31949;51.404;-0.038;2023-04-06T13:40:57;14.90;99.90
46231;DHT22;31949;51.404;-0.038;2023-04-06T13:43:25;14.90;99.90
46231;DHT22;31949;51.404;-0.038;2023-04-06T13:45:55;14.80;99.90
46231;DHT22;31949;51.404;-0.038;2023-04-06T13:48:23;14.90;99.90
46231;DHT22;31949;51.404;-0.038;2023-04-06T13:50:50;14.80;99.90
46231;DHT22;31949;51.404;-0.038;2023-04-06T13:53:18;14.80;99.90
46231;DHT22;31949;51.404;-0.038;2023-04-06T13:55:52;14.80;99.90
46231;DHT22;31949;51.404;-0.038;2023-04-06T13:58:20;14.80;99.90
46231;DHT22;31949;51.404;-0.038;2023-04-06T14:00:47;14.90;99.90
46231;DHT22;31949;51.404;-0.038;2023-04-06T14:03:15;14.90;99.90
46231;DHT22;31949;51.404;-0.038;2023-04-06T14:05:43;14.90;99.90
46231;DHT22;31949;51.404;-0.038;2023-04-06T14:08:11;14.80;99.90
46231;DHT22;31949;51.404;-0.038;2023-04-06T14:10:39;14.80;99.90
46231;DHT22;31949;51.404;-0.038;2023-04-06T14:13:08;14.70;99.90
46231;DHT22;31949;51.404;-0.038;2023-04-06T14:15:35;14.70;99.90
46231;DHT22;31949;51.404;-0.038;2023-04-06T14:18:03;14.50;99.90
46231;DHT22;31949;51.404;-0.038;2023-04-06T14:20:33;14.40;99.90
46231;DHT22;31949;51.404;-0.038;2023-04-06T14:23:02;14.40;99.90
46231;DHT22;31949;51.404;-0.038;2023-04-06T14:25:29;14.30;99.90
46231;DHT22;31949;51.404;-0.038;2023-04-06T14:28:01;14.00;99.90
46231;DHT22;31949;51.404;-0.038;2023-04-06T14:30:30;13.90;99.90
46231;DHT22;31949;51.404;-0.038;2023-04-06T14:32:58;13.70;99.90
46231;DHT22;31949;51.404;-0.038;2023-04-06T14:35:26;13.60;99.90
46231;DHT22;31949;51.404;-0.038;2023-04-06T14:37:56;13.50;99.90
46231;DHT22;31949;51.404;-0.038;2023-04-06T14:40:34;13.30;99.90
46231;DHT22;31949;51.404;-0.038;2023-04-06T14:43:03;13.20;99.90
46231;DHT22;31949;51.404;-0.038;2023-04-06T14:45:33;13.10;99.90
46231;DHT22;31949;51.404;-0.038;2023-04-06T14:48:03;13.00;99.90
46231;DHT22;31949;51.404;-0.038;2023-04-06T14:50:36;12.70;99.90
46231;DHT22;31949;51.404;-0.038;2023-04-06T14:53:09;12.30;99.90
46231;DHT22;31949;51.404;-0.038;2023-04-06T14:55:40;12.00;99.90
46231;DHT22;31949;51.404;-0.038;2023-04-06T14:58:08;11.80;99.90
46231;DHT22;31949;51.404;-0.038;2023-04-06T15:00:39;11.50;99.90
46231;DHT22;31949;51.404;-0.038;2023-04-06T15:03:18;11.30;99.90
46231;DHT22;31949;51.404;-0.038;2023-04-06T15:05:46;11.30;99.90
46231;DHT22;31949;51.404;-0.038;2023-04-06T15:08:13;11.20;99.90
46231;DHT22;31949;51.404;-0.038;2023-04-06T15:10:42;11.20;99.90
46231;DHT22;31949;51.404;-0.038;2023-04-06T15:13:09;11.30;99.90
46231;DHT22;31949;51.404;-0.038;2023-04-06T15:15:36;11.30;99.90
46231;DHT22;31949;51.404;-0.038;2023-04-06T15:18:04;11.40;99.90
46231;DHT22;31949;51.404;-0.038;2023-04-06T15:20:32;11.40;99.90
46231;DHT22;31949;51.404;-0.038;2023-04-06T15:23:01;11.50;99.90
46231;DHT22;31949;51.404;-0.038;2023-04-06T15:25:29;11.70;99.90
46231;DHT22;31949;51.404;-0.038;2023-04-06T15:27:57;11.80;99.90
46231;DHT22;31949;51.404;-0.038;2023-04-06T15:30:35;11.90;99.90
46231;DHT22;31949;51.404;-0.038;2023-04-06T15:33:07;12.10;99.90
46231;DHT22;31949;51.404;-0.038;2023-04-06T15:35:34;12.20;99.90